Time;durP1;ratioP1;P1;durP2;ratioP2;P2;SDS_P1;SDS_P2;PMS_P1;PMS_P2;Temp;Humidity;BMP_temperature;BMP_pressure;BME280_temperature;BME280_humidity;BME280_pressure;Samples;Min_cycle;Max_cycle;Signal;HPM_P1;HPM_P2
2022/09/06 00:00:04;;;;;;;3.33;3.03;;;17.70;99.90;;;;;;6228018;23;19997;-83
2022/09/06 00:02:34;;;;;;;3.15;2.88;;;17.70;99.90;;;;;;6228192;23;20056;-83
2022/09/06 00:05:00;;;;;;;3.08;2.78;;;17.60;99.90;;;;;;6226955;23;20052;-82
2022/09/06 00:07:26;;;;;;;2.80;2.60;;;17.60;99.90;;;;;;6226070;23;20035;-82
2022/09/06 00:09:51;;;;;;;2.83;2.63;;;17.60;99.90;;;;;;6225454;23;20016;-83
2022/09/06 00:12:17;;;;;;;2.63;2.42;;;17.60;99.90;;;;;;6226176;23;20009;-82
2022/09/06 00:14:43;;;;;;;3.20;3.00;;;17.50;99.90;;;;;;6231264;23;19996;-80
2022/09/06 00:17:08;;;;;;;3.00;2.70;;;17.50;99.90;;;;;;6224396;23;20031;-81
2022/09/06 00:19:34;;;;;;;3.22;2.92;;;17.40;99.90;;;;;;6233692;23;20005;-82
2022/09/06 00:22:00;;;;;;;2.75;2.55;;;17.40;99.90;;;;;;6233506;23;20012;-81
2022/09/06 00:24:26;;;;;;;2.92;2.60;;;17.40;99.90;;;;;;6233114;23;20012;-82
2022/09/06 00:26:51;;;;;;;3.42;3.13;;;17.40;99.90;;;;;;6235874;23;20000;-82
2022/09/06 00:29:17;;;;;;;2.72;2.53;;;17.40;99.90;;;;;;6229978;23;20039;-82
2022/09/06 00:31:43;;;;;;;2.92;2.63;;;17.40;99.90;;;;;;6221303;23;20103;-81
2022/09/06 00:34:08;;;;;;;3.33;3.03;;;17.40;99.90;;;;;;6222440;23;20054;-81
2022/09/06 00:36:34;;;;;;;2.75;2.55;;;17.30;99.90;;;;;;6194363;23;20000;-82
2022/09/06 00:39:00;;;;;;;3.03;2.70;;;17.30;99.90;;;;;;6218197;23;20001;-83
2022/09/06 00:41:25;;;;;;;3.22;2.97;;;17.30;99.90;;;;;;6215912;23;20005;-82
2022/09/06 00:43:51;;;;;;;3.45;3.15;;;17.30;99.90;;;;;;6225383;23;20052;-82
2022/09/06 00:46:21;;;;;;;3.75;3.45;;;17.30;99.90;;;;;;6227094;23;20005;-82
2022/09/06 00:48:50;;;;;;;3.75;3.45;;;17.20;99.90;;;;;;6227973;23;20001;-82
2022/09/06 00:51:17;;;;;;;4.38;3.63;;;17.20;99.90;;;;;;6227607;23;20460;-82
2022/09/06 00:53:43;;;;;;;3.33;2.97;;;17.20;99.90;;;;;;6227308;23;20020;-82
2022/09/06 00:56:09;;;;;;;4.25;3.38;;;17.10;99.90;;;;;;6225783;23;19992;-81
2022/09/06 00:58:36;;;;;;;3.78;3.47;;;17.10;99.90;;;;;;6226429;23;20032;-82
2022/09/06 01:01:01;;;;;;;4.65;3.33;;;17.00;99.90;;;;;;6226467;23;20001;-82
2022/09/06 01:03:27;;;;;;;3.40;2.90;;;17.10;99.90;;;;;;6227036;23;20015;-82
2022/09/06 01:06:08;;;;;;;3.05;2.78;;;17.00;99.90;;;;;;6227272;23;20048;-83
2022/09/06 01:08:42;;;;;;;3.28;3.08;;;17.00;99.90;;;;;;6200664;23;20032;-82
2022/09/06 01:11:55;;;;;;;3.15;2.95;;;17.00;99.90;;;;;;6227015;23;20032;-82
2022/09/06 01:14:29;;;;;;;3.20;3.00;;;17.00;99.90;;;;;;6198778;23;20000;-83
2022/09/06 01:17:11;;;;;;;2.85;2.65;;;17.00;99.90;;;;;;6226569;23;20000;-82
2022/09/06 01:19:40;;;;;;;;;;;17.00;99.90;;;;;;6201508;23;20005;-82
2022/09/06 01:22:34;;;;;;;3.15;2.85;;;16.90;99.90;;;;;;6228206;23;20339;-80
2022/09/06 01:25:24;;;;;;;3.33;3.03;;;16.90;99.90;;;;;;6241057;23;19992;-80
2022/09/06 01:28:27;;;;;;;2.88;2.67;;;16.90;99.90;;;;;;6198706;23;20382;-82
2022/09/06 01:31:03;;;;;;;2.70;2.50;;;16.90;99.90;;;;;;6225289;23;20000;-82
2022/09/06 01:33:41;;;;;;;2.97;2.75;;;16.80;99.90;;;;;;6226140;23;20018;-83
2022/09/06 01:36:14;;;;;;;3.30;3.10;;;16.90;99.90;;;;;;6175615;23;20005;-83
2022/09/06 01:38:40;;;;;;;2.97;2.75;;;16.80;99.90;;;;;;6226138;23;20332;-82
2022/09/06 01:41:06;;;;;;;2.97;2.78;;;16.80;99.90;;;;;;6178322;23;20008;-82
2022/09/06 01:43:38;;;;;;;3.70;2.72;;;16.80;99.90;;;;;;6234999;23;19988;-80
2022/09/06 01:46:31;;;;;;;2.88;2.67;;;16.70;99.90;;;;;;6239054;23;19988;-80
2022/09/06 01:49:18;;;;;;;2.55;2.35;;;16.70;99.90;;;;;;6232376;23;20005;-83
2022/09/06 01:52:00;;;;;;;3.20;2.90;;;16.70;99.90;;;;;;6226465;23;20008;-82
2022/09/06 01:54:25;;;;;;;3.50;3.20;;;16.70;99.90;;;;;;6226657;23;20008;-82
2022/09/06 01:56:51;;;;;;;3.38;3.08;;;16.70;99.90;;;;;;6227249;23;20004;-82
2022/09/06 01:59:46;;;;;;;3.38;3.10;;;16.70;99.90;;;;;;6231046;23;20043;-82
2022/09/06 02:02:15;;;;;;;3.70;3.40;;;16.70;99.90;;;;;;6238240;23;20020;-83
2022/09/06 02:04:45;;;;;;;4.63;3.70;;;16.60;99.90;;;;;;6228655;23;20188;-84
2022/09/06 02:07:25;;;;;;;3.58;3.28;;;16.60;99.90;;;;;;6225379;23;20055;-82
2022/09/06 02:10:20;;;;;;;3.17;2.97;;;16.60;99.90;;;;;;6199470;23;20031;-81
2022/09/06 02:12:51;;;;;;;3.63;3.33;;;16.60;99.90;;;;;;6197264;23;20011;-83
2022/09/06 02:15:33;;;;;;;3.88;3.30;;;16.60;99.90;;;;;;6199228;23;20119;-83
2022/09/06 02:18:13;;;;;;;4.38;3.33;;;16.60;99.90;;;;;;6198428;23;20004;-82
2022/09/06 02:20:47;;;;;;;3.53;3.25;;;16.60;99.90;;;;;;6225985;23;20043;-82
2022/09/06 02:23:15;;;;;;;3.15;2.95;;;16.50;99.90;;;;;;6226267;23;20020;-82
2022/09/06 02:25:53;;;;;;;2.80;2.50;;;16.50;99.90;;;;;;6226695;23;20256;-83
2022/09/06 02:28:21;;;;;;;4.60;3.28;;;16.50;99.90;;;;;;6236610;23;19996;-81
2022/09/06 02:30:50;;;;;;;3.38;3.17;;;16.40;99.90;;;;;;6238046;23;20011;-81
2022/09/06 02:33:19;;;;;;;4.07;3.30;;;16.40;99.90;;;;;;6187833;23;19995;-82
2022/09/06 02:35:51;;;;;;;3.65;3.35;;;16.40;99.90;;;;;;6235562;23;20028;-82
2022/09/06 02:38:20;;;;;;;3.42;3.13;;;16.30;99.90;;;;;;6208219;23;20012;-82
2022/09/06 02:40:46;;;;;;;3.40;2.97;;;16.40;99.90;;;;;;6235377;23;20052;-82
2022/09/06 02:43:12;;;;;;;4.55;3.20;;;16.30;99.90;;;;;;6211597;23;20043;-82
2022/09/06 02:45:38;;;;;;;3.70;3.40;;;16.40;99.90;;;;;;6239060;23;20032;-80
2022/09/06 02:48:03;;;;;;;3.42;3.08;;;16.40;99.90;;;;;;6239156;23;19985;-81
2022/09/06 02:50:29;;;;;;;3.88;3.53;;;16.30;99.90;;;;;;6239612;23;20131;-81
2022/09/06 02:53:10;;;;;;;5.13;3.17;;;16.30;99.90;;;;;;6239355;23;20076;-81
2022/09/06 02:55:37;;;;;;;3.17;2.83;;;16.40;99.90;;;;;;6239478;23;19996;-82
2022/09/06 02:58:05;;;;;;;3.75;3.00;;;16.30;99.90;;;;;;6240565;23;20000;-80
2022/09/06 03:00:34;;;;;;;3.30;3.00;;;16.30;99.90;;;;;;6238629;23;20000;-82
2022/09/06 03:03:00;;;;;;;3.38;3.08;;;16.30;99.90;;;;;;6183291;23;20018;-81
2022/09/06 03:05:27;;;;;;;5.03;3.10;;;16.30;99.90;;;;;;6211830;23;20013;-82
2022/09/06 03:07:54;;;;;;;3.47;3.20;;;16.30;99.90;;;;;;6235490;23;19997;-80
2022/09/06 03:10:21;;;;;;;3.03;2.83;;;16.30;99.90;;;;;;6235186;23;20036;-82
2022/09/06 03:12:49;;;;;;;5.20;3.45;;;16.30;99.90;;;;;;6204687;23;20012;-82
2022/09/06 03:15:16;;;;;;;3.80;3.40;;;16.30;99.90;;;;;;6223976;23;20039;-83
2022/09/06 03:17:42;;;;;;;4.13;3.50;;;16.30;99.90;;;;;;6196934;23;20368;-83
2022/09/06 03:20:09;;;;;;;3.95;3.65;;;16.30;99.90;;;;;;6226733;23;20009;-82
2022/09/06 03:22:39;;;;;;;3.70;3.40;;;16.30;99.90;;;;;;6205633;23;20000;-81
2022/09/06 03:25:08;;;;;;;3.58;3.28;;;16.20;99.90;;;;;;6242128;23;20076;-81
2022/09/06 03:27:34;;;;;;;3.60;3.30;;;16.20;99.90;;;;;;6228345;23;20027;-83
2022/09/06 03:30:01;;;;;;;3.70;3.40;;;16.20;99.90;;;;;;6228076;23;20420;-83
2022/09/06 03:32:27;;;;;;;3.47;3.17;;;16.20;99.90;;;;;;6200626;23;20004;-83
2022/09/06 03:34:52;;;;;;;4.13;3.72;;;16.20;99.90;;;;;;6228572;23;20004;-83
2022/09/06 03:37:18;;;;;;;3.80;3.22;;;16.10;99.90;;;;;;6228154;23;20023;-82
2022/09/06 03:39:44;;;;;;;3.50;3.15;;;16.10;99.90;;;;;;6228674;23;20003;-82
2022/09/06 03:42:12;;;;;;;3.33;2.95;;;16.10;99.90;;;;;;6203221;23;20490;-82
2022/09/06 03:44:37;;;;;;;3.42;3.13;;;16.00;99.90;;;;;;6228529;23;20013;-81
2022/09/06 03:47:03;;;;;;;4.43;3.53;;;16.00;99.90;;;;;;6239123;23;19989;-81
2022/09/06 03:49:29;;;;;;;4.65;3.55;;;16.00;99.90;;;;;;6240741;23;20064;-81
2022/09/06 03:51:55;;;;;;;3.13;2.90;;;16.00;99.90;;;;;;6238451;23;20412;-83
2022/09/06 03:54:21;;;;;;;3.58;3.22;;;16.00;99.90;;;;;;6229955;23;20004;-83
2022/09/06 03:56:46;;;;;;;3.80;3.50;;;15.90;99.90;;;;;;6228780;23;20416;-82
2022/09/06 03:59:12;;;;;;;3.33;3.05;;;15.90;99.90;;;;;;6210128;23;20005;-81
2022/09/06 04:01:37;;;;;;;4.07;3.30;;;15.90;99.90;;;;;;6234809;23;20046;-82
2022/09/06 04:04:03;;;;;;;3.88;3.58;;;15.90;99.90;;;;;;6202464;23;20008;-82
2022/09/06 04:06:29;;;;;;;3.65;3.33;;;15.90;99.90;;;;;;6228972;23;20001;-82
2022/09/06 04:08:54;;;;;;;5.47;3.95;;;15.90;99.90;;;;;;6230485;23;20005;-82
2022/09/06 04:11:20;;;;;;;3.88;3.58;;;15.90;99.90;;;;;;6202250;23;20005;-82
2022/09/06 04:13:46;;;;;;;3.90;3.55;;;15.90;99.90;;;;;;6227230;23;20024;-81
2022/09/06 04:16:11;;;;;;;3.92;3.60;;;15.90;99.90;;;;;;6227351;23;19997;-82
2022/09/06 04:18:39;;;;;;;4.95;3.72;;;15.80;99.90;;;;;;6226793;23;20343;-83
2022/09/06 04:21:06;;;;;;;3.63;3.33;;;15.80;99.90;;;;;;6173462;23;20016;-82
2022/09/06 04:23:31;;;;;;;5.25;4.03;;;15.90;99.90;;;;;;6197908;23;20050;-82
2022/09/06 04:25:58;;;;;;;4.63;4.10;;;15.90;99.90;;;;;;6222901;23;20078;-82
2022/09/06 04:28:25;;;;;;;4.28;3.72;;;15.90;99.90;;;;;;6223200;23;20000;-81
2022/09/06 04:30:52;;;;;;;4.13;3.72;;;16.00;99.90;;;;;;6220075;23;20004;-82
2022/09/06 04:33:19;;;;;;;3.53;3.22;;;15.90;99.90;;;;;;6221296;23;20001;-82
2022/09/06 04:36:06;;;;;;;5.53;3.50;;;15.90;99.90;;;;;;6222999;23;20001;-83
2022/09/06 04:38:37;;;;;;;3.70;3.40;;;16.00;99.90;;;;;;6220981;23;20062;-82
2022/09/06 04:41:04;;;;;;;4.35;3.08;;;15.90;99.90;;;;;;6219875;23;20067;-82
2022/09/06 04:43:29;;;;;;;3.67;3.35;;;15.90;99.90;;;;;;6219284;23;20336;-83
2022/09/06 04:45:55;;;;;;;3.10;2.80;;;15.90;99.90;;;;;;6219112;23;20076;-81
2022/09/06 04:48:20;;;;;;;3.80;3.13;;;16.00;99.90;;;;;;6220528;23;20000;-82
2022/09/06 04:50:46;;;;;;;5.93;3.60;;;16.00;99.90;;;;;;6230662;23;20028;-82
2022/09/06 04:53:12;;;;;;;4.45;3.20;;;16.10;99.90;;;;;;6201830;22;20012;-87
2022/09/06 04:55:38;;;;;;;3.40;3.10;;;16.10;99.90;;;;;;6226564;23;20379;-86
2022/09/06 04:58:04;;;;;;;4.47;3.47;;;16.20;99.90;;;;;;6222039;23;20399;-86
2022/09/06 05:00:33;;;;;;;7.45;3.55;;;16.20;99.90;;;;;;6224499;23;19997;-84
2022/09/06 05:02:59;;;;;;;3.30;3.08;;;16.30;99.90;;;;;;6249521;23;20056;-85
2022/09/06 05:05:24;;;;;;;3.65;3.00;;;16.30;99.90;;;;;;6198781;23;20005;-86
2022/09/06 05:07:54;;;;;;;3.13;2.83;;;16.30;99.90;;;;;;6195670;23;20009;-85
2022/09/06 05:10:21;;;;;;;3.05;2.85;;;16.30;99.90;;;;;;6196342;23;20055;-85
2022/09/06 05:12:48;;;;;;;3.10;2.78;;;16.40;99.90;;;;;;6197899;23;20040;-84
2022/09/06 05:15:15;;;;;;;3.25;2.95;;;16.40;99.90;;;;;;6196157;23;20096;-85
2022/09/06 05:17:41;;;;;;;3.08;2.88;;;16.40;99.90;;;;;;6195917;23;20001;-85
2022/09/06 05:20:07;;;;;;;2.67;2.47;;;16.40;99.90;;;;;;6192936;23;20043;-85
2022/09/06 05:22:33;;;;;;;4.50;3.55;;;16.50;99.90;;;;;;6192918;23;20005;-84
2022/09/06 05:24:58;;;;;;;3.58;2.97;;;16.50;99.90;;;;;;6191543;23;20258;-84
2022/09/06 05:27:24;;;;;;;3.20;2.90;;;16.50;99.90;;;;;;6192863;23;20009;-84
2022/09/06 05:29:50;;;;;;;4.10;3.63;;;16.60;99.90;;;;;;6194569;23;20301;-84
2022/09/06 05:32:15;;;;;;;3.05;2.85;;;16.60;99.90;;;;;;6194214;23;20009;-85
2022/09/06 05:34:41;;;;;;;2.88;2.67;;;16.70;99.90;;;;;;6193024;23;20012;-84
2022/09/06 05:37:06;;;;;;;3.03;2.72;;;16.80;99.90;;;;;;6193677;23;20055;-85
2022/09/06 05:39:32;;;;;;;2.85;2.58;;;16.80;99.90;;;;;;6206243;23;20001;-84
2022/09/06 05:41:59;;;;;;;2.95;2.63;;;16.90;99.90;;;;;;6200657;23;20028;-85
2022/09/06 05:44:25;;;;;;;2.90;2.70;;;17.10;99.90;;;;;;6191571;23;20020;-85
2022/09/06 05:46:51;;;;;;;3.55;2.50;;;17.30;99.90;;;;;;6192114;23;20067;-85
2022/09/06 05:49:16;;;;;;;3.90;3.50;;;17.30;99.90;;;;;;6191581;23;20037;-85
2022/09/06 05:51:42;;;;;;;4.47;3.17;;;17.50;99.90;;;;;;6192069;23;20017;-85
2022/09/06 05:54:10;;;;;;;3.45;3.15;;;17.80;99.90;;;;;;6190999;23;20093;-85
2022/09/06 05:56:36;;;;;;;4.00;3.33;;;18.00;99.90;;;;;;6203797;23;20028;-85
2022/09/06 05:59:03;;;;;;;4.72;3.30;;;18.20;99.30;;;;;;6197031;23;20005;-84
2022/09/06 06:01:29;;;;;;;3.67;3.22;;;18.40;98.70;;;;;;6192485;23;20069;-85
2022/09/06 06:03:57;;;;;;;4.53;3.45;;;18.50;98.20;;;;;;6198671;23;20147;-85
2022/09/06 06:06:25;;;;;;;5.35;3.42;;;18.60;97.70;;;;;;6205434;23;20069;-84
2022/09/06 06:08:51;;;;;;;6.00;3.50;;;18.50;97.40;;;;;;6204752;23;20001;-84
2022/09/06 06:11:17;;;;;;;6.30;3.47;;;18.40;97.50;;;;;;6201972;23;20024;-85
2022/09/06 06:13:43;;;;;;;4.22;3.25;;;18.30;97.30;;;;;;6202862;23;20004;-85
2022/09/06 06:16:15;;;;;;;2.85;2.65;;;18.30;97.40;;;;;;6205036;23;20020;-86
2022/09/06 06:18:46;;;;;;;4.93;3.25;;;18.30;97.50;;;;;;6201881;23;19985;-85
2022/09/06 06:21:22;;;;;;;3.90;2.92;;;18.30;97.30;;;;;;6192742;23;20019;-86
2022/09/06 06:23:53;;;;;;;3.58;3.25;;;18.30;97.40;;;;;;6194573;23;20028;-86
2022/09/06 06:26:19;;;;;;;5.13;3.13;;;18.40;97.10;;;;;;6195787;23;20015;-85
2022/09/06 06:28:45;;;;;;;5.40;2.80;;;18.60;97.10;;;;;;6201148;23;20005;-85
2022/09/06 06:31:11;;;;;;;2.85;2.63;;;18.80;97.10;;;;;;6197509;23;20001;-86
2022/09/06 06:33:38;;;;;;;5.05;3.28;;;19.00;96.30;;;;;;6192558;23;20020;-86
2022/09/06 06:36:25;;;;;;;6.88;3.50;;;19.20;95.80;;;;;;6190982;23;20001;-85
2022/09/06 06:38:54;;;;;;;3.30;2.72;;;19.40;95.40;;;;;;6190460;23;20008;-85
2022/09/06 06:41:22;;;;;;;5.40;2.70;;;19.60;95.00;;;;;;6195443;23;20068;-86
2022/09/06 06:43:51;;;;;;;5.43;3.15;;;19.60;94.20;;;;;;6202393;23;20012;-85
2022/09/06 06:46:17;;;;;;;3.85;2.90;;;19.60;94.10;;;;;;6203999;23;20013;-86
2022/09/06 06:48:45;;;;;;;3.85;3.00;;;19.50;94.00;;;;;;6193188;23;20025;-86
2022/09/06 06:51:13;;;;;;;4.13;2.53;;;19.60;94.00;;;;;;6194913;23;20048;-84
2022/09/06 06:53:38;;;;;;;4.43;2.70;;;19.70;93.80;;;;;;6195864;23;20024;-84
2022/09/06 06:56:19;;;;;;;13.00;3.42;;;19.70;93.50;;;;;;6201020;23;20005;-85
2022/09/06 06:58:51;;;;;;;5.47;2.83;;;19.80;93.00;;;;;;6198365;23;20016;-86
2022/09/06 07:01:19;;;;;;;3.15;2.85;;;20.00;92.70;;;;;;6201527;23;20008;-84
2022/09/06 07:03:45;;;;;;;3.25;2.95;;;20.20;92.40;;;;;;6199987;23;20005;-84
2022/09/06 07:06:12;;;;;;;5.13;2.13;;;20.40;91.80;;;;;;6208498;23;19993;-85
2022/09/06 07:08:38;;;;;;;3.38;2.67;;;20.70;91.40;;;;;;6210990;23;20021;-85
2022/09/06 07:11:09;;;;;;;2.50;2.30;;;21.00;91.00;;;;;;6208633;23;20064;-85
2022/09/06 07:13:35;;;;;;;6.43;2.75;;;21.20;90.50;;;;;;6209517;23;20044;-86
2022/09/06 07:16:10;;;;;;;3.10;2.40;;;21.40;89.60;;;;;;6206442;23;20001;-85
2022/09/06 07:18:41;;;;;;;2.85;2.25;;;21.50;88.00;;;;;;6205947;23;20431;-86
2022/09/06 07:21:09;;;;;;;3.05;1.90;;;21.70;87.80;;;;;;6204921;23;20085;-85
2022/09/06 07:23:35;;;;;;;7.68;2.45;;;21.80;86.30;;;;;;6196911;23;20001;-86
2022/09/06 07:26:00;;;;;;;7.85;2.35;;;21.80;85.60;;;;;;6193100;23;20005;-86
2022/09/06 07:28:26;;;;;;;5.60;2.58;;;21.70;84.70;;;;;;6194127;23;20404;-85
2022/09/06 07:30:53;;;;;;;2.88;1.80;;;21.70;85.00;;;;;;6191581;23;20021;-85
2022/09/06 07:33:19;;;;;;;3.28;2.10;;;21.60;84.30;;;;;;6191736;23;20005;-86
2022/09/06 07:35:59;;;;;;;7.07;2.50;;;21.60;85.10;;;;;;6191149;23;20131;-86
2022/09/06 07:38:27;;;;;;;2.95;2.20;;;21.60;85.10;;;;;;6192248;23;20005;-86
2022/09/06 07:41:04;;;;;;;3.03;1.90;;;21.60;84.80;;;;;;6192823;23;19997;-85
2022/09/06 07:43:31;;;;;;;3.40;1.98;;;21.60;84.50;;;;;;6194845;23;20009;-85
2022/09/06 07:46:16;;;;;;;3.45;1.90;;;21.50;84.70;;;;;;6191142;23;20020;-85
2022/09/06 07:48:44;;;;;;;3.55;1.77;;;21.40;85.20;;;;;;6192348;23;20028;-85
2022/09/06 07:51:15;;;;;;;5.85;1.80;;;21.40;85.40;;;;;;6192199;23;20008;-85
2022/09/06 07:53:43;;;;;;;3.55;1.90;;;21.30;85.40;;;;;;6212262;23;20000;-84
2022/09/06 07:56:11;;;;;;;5.63;1.88;;;21.20;86.10;;;;;;6194626;23;20070;-84
2022/09/06 07:58:38;;;;;;;1.85;1.75;;;21.20;87.20;;;;;;6227330;23;20005;-84
2022/09/06 08:01:38;;;;;;;5.47;2.17;;;21.10;87.90;;;;;;6209987;23;20004;-86
2022/09/06 08:04:09;;;;;;;2.28;1.70;;;21.10;88.20;;;;;;6225584;23;19999;-86
2022/09/06 08:06:37;;;;;;;2.65;1.83;;;21.20;88.60;;;;;;6222017;23;19992;-86
2022/09/06 08:09:06;;;;;;;1.65;1.55;;;21.20;88.50;;;;;;6221296;23;19996;-86
2022/09/06 08:11:33;;;;;;;5.78;1.70;;;21.40;88.70;;;;;;6223334;23;20504;-86
2022/09/06 08:14:00;;;;;;;3.80;1.70;;;21.40;88.30;;;;;;6223487;23;20001;-85
2022/09/06 08:16:28;;;;;;;4.22;2.13;;;21.50;88.00;;;;;;6197332;23;20013;-85
2022/09/06 08:18:56;;;;;;;3.58;1.90;;;21.70;87.60;;;;;;6198280;23;20419;-86
2022/09/06 08:21:24;;;;;;;8.90;2.35;;;22.00;86.80;;;;;;6196366;23;20065;-85
2022/09/06 08:23:56;;;;;;;3.58;1.65;;;22.60;85.40;;;;;;6222652;23;19997;-86
2022/09/06 08:26:23;;;;;;;3.30;1.58;;;23.00;82.90;;;;;;6194886;23;20012;-86
2022/09/06 08:28:54;;;;;;;1.90;1.30;;;23.10;82.20;;;;;;6195133;23;20062;-86
2022/09/06 08:31:20;;;;;;;1.58;1.48;;;23.30;81.50;;;;;;6221866;23;20044;-86
2022/09/06 08:33:46;;;;;;;3.17;1.60;;;23.40;81.00;;;;;;6196725;23;20016;-87
2022/09/06 08:36:13;;;;;;;6.40;1.60;;;23.60;79.60;;;;;;6195771;23;20087;-86
2022/09/06 08:38:39;;;;;;;2.35;1.42;;;23.60;78.50;;;;;;6196386;23;20009;-86
2022/09/06 08:41:21;;;;;;;2.40;1.55;;;23.60;78.60;;;;;;6224760;23;20001;-86
2022/09/06 08:44:09;;;;;;;1.65;1.40;;;23.70;78.00;;;;;;6225196;23;20004;-85
2022/09/06 08:46:58;;;;;;;1.98;1.50;;;23.70;77.90;;;;;;6197647;23;20016;-86
2022/09/06 08:49:28;;;;;;;4.25;1.40;;;23.80;77.70;;;;;;6199551;23;20394;-86
2022/09/06 08:52:00;;;;;;;2.13;1.20;;;23.90;77.00;;;;;;6196923;23;20008;-86
2022/09/06 08:54:52;;;;;;;1.40;1.30;;;24.00;75.30;;;;;;6224441;23;20087;-86
2022/09/06 08:57:35;;;;;;;2.30;1.50;;;24.10;75.00;;;;;;6226254;22;20008;-86
2022/09/06 09:00:07;;;;;;;3.40;1.25;;;24.10;73.80;;;;;;6197407;23;20019;-86
2022/09/06 09:02:40;;;;;;;;;;;24.00;73.70;;;;;;6198099;23;20312;-86
2022/09/06 09:05:19;;;;;;;3.15;1.55;;;23.90;73.50;;;;;;6223179;23;19952;-86
2022/09/06 09:08:15;;;;;;;1.33;1.10;;;23.80;73.60;;;;;;6226503;23;20075;-85
2022/09/06 09:10:58;;;;;;;2.95;1.70;;;23.70;74.00;;;;;;6188479;23;20004;-86
2022/09/06 09:13:42;;;;;;;3.85;1.50;;;23.70;74.10;;;;;;6224816;23;20004;-85
2022/09/06 09:16:08;;;;;;;1.65;1.13;;;23.70;73.50;;;;;;6226356;23;20044;-86
2022/09/06 09:18:42;;;;;;;1.30;1.15;;;23.60;73.50;;;;;;6197447;22;20000;-87
2022/09/06 09:21:09;;;;;;;3.55;1.40;;;23.60;73.80;;;;;;6199639;23;20443;-85
2022/09/06 09:23:35;;;;;;;3.58;1.33;;;23.60;74.00;;;;;;6201520;23;20008;-86
2022/09/06 09:26:13;;;;;;;1.85;1.25;;;23.50;74.30;;;;;;6198247;23;20001;-86
2022/09/06 09:29:03;;;;;;;2.25;1.35;;;23.50;74.60;;;;;;6198459;23;20032;-86
2022/09/06 09:31:39;;;;;;;2.97;0.98;;;23.70;74.50;;;;;;6228930;23;20019;-87
2022/09/06 09:34:11;;;;;;;1.50;1.00;;;24.00;74.00;;;;;;6215746;22;20063;-86
2022/09/06 09:36:37;;;;;;;2.80;1.10;;;24.50;73.50;;;;;;6205969;22;20001;-86
2022/09/06 09:39:09;;;;;;;2.90;1.60;;;25.00;71.60;;;;;;6200571;23;20336;-86
2022/09/06 09:41:38;;;;;;;3.10;1.30;;;25.40;69.70;;;;;;6204428;23;20064;-85
2022/09/06 09:44:08;;;;;;;2.17;1.48;;;25.60;68.80;;;;;;6230204;23;20004;-85
2022/09/06 09:46:37;;;;;;;1.50;1.30;;;25.70;67.00;;;;;;6204394;23;20023;-85
2022/09/06 09:49:23;;;;;;;1.77;1.13;;;25.70;66.60;;;;;;6233138;23;20000;-86
2022/09/06 09:52:29;;;;;;;2.40;1.40;;;25.70;66.40;;;;;;6199760;23;20017;-86
2022/09/06 09:54:59;;;;;;;3.35;1.20;;;25.70;66.10;;;;;;6183293;23;19997;-86
2022/09/06 09:57:25;;;;;;;1.67;1.20;;;25.80;65.20;;;;;;6198402;23;20004;-86
2022/09/06 09:59:59;;;;;;;2.05;1.20;;;25.80;64.80;;;;;;6197743;23;20011;-85
2022/09/06 10:02:35;;;;;;;1.58;0.90;;;25.80;63.80;;;;;;6223924;23;20000;-85
2022/09/06 10:05:15;;;;;;;3.03;1.38;;;26.10;63.20;;;;;;6223705;23;20443;-85
2022/09/06 10:07:53;;;;;;;1.80;1.45;;;26.30;62.20;;;;;;6227606;23;20012;-86
2022/09/06 10:10:37;;;;;;;2.33;1.30;;;26.40;61.40;;;;;;6224350;23;20000;-85
2022/09/06 10:13:21;;;;;;;3.75;1.52;;;26.60;61.20;;;;;;6222534;22;20020;-86
2022/09/06 10:15:49;;;;;;;2.15;1.20;;;26.70;61.10;;;;;;6197770;23;20035;-86
2022/09/06 10:18:28;;;;;;;1.55;1.00;;;26.60;61.20;;;;;;6224178;23;20001;-86
2022/09/06 10:21:00;;;;;;;1.30;1.20;;;26.60;61.80;;;;;;6196669;23;20004;-85
2022/09/06 10:23:35;;;;;;;2.63;1.42;;;26.70;61.40;;;;;;6225082;23;20400;-86
2022/09/06 10:26:39;;;;;;;1.75;1.60;;;26.70;60.30;;;;;;6197674;23;20000;-86
2022/09/06 10:29:08;;;;;;;1.88;0.95;;;26.60;60.60;;;;;;6224364;23;20083;-87
2022/09/06 10:32:09;;;;;;;2.53;1.40;;;26.50;59.90;;;;;;6225789;23;20008;-86
2022/09/06 10:34:35;;;;;;;2.17;1.30;;;26.30;60.20;;;;;;6182089;23;20008;-86
2022/09/06 10:37:25;;;;;;;2.53;1.38;;;26.30;60.20;;;;;;6223910;23;20091;-85
2022/09/06 10:40:09;;;;;;;1.40;1.08;;;26.50;59.90;;;;;;6195937;23;20016;-86
2022/09/06 10:42:53;;;;;;;1.63;1.38;;;26.70;59.60;;;;;;6195029;23;20332;-86
2022/09/06 10:45:34;;;;;;;3.88;1.30;;;26.80;59.30;;;;;;6195439;23;20015;-86
2022/09/06 10:48:16;;;;;;;1.20;1.10;;;26.90;59.40;;;;;;6195551;23;20005;-86
2022/09/06 10:51:00;;;;;;;2.53;1.45;;;27.00;59.20;;;;;;6221845;23;20016;-87
2022/09/06 10:53:35;;;;;;;1.35;1.13;;;27.20;58.70;;;;;;6228319;22;20012;-83
2022/09/06 11:06:58;;;;;;;4.10;1.60;;;27.60;58.30;;;;;;6161720;23;20523;-84
2022/09/06 11:09:37;;;;;;;2.53;1.10;;;27.70;57.90;;;;;;6230775;23;20000;-84
2022/09/06 11:12:15;;;;;;;3.13;1.52;;;27.70;58.20;;;;;;6254487;23;20505;-83
2022/09/06 11:14:41;;;;;;;3.80;1.48;;;27.70;58.10;;;;;;6230100;23;20008;-83
2022/09/06 11:17:14;;;;;;;3.45;1.60;;;28.00;57.60;;;;;;6254029;23;20437;-83
2022/09/06 11:19:55;;;;;;;2.50;1.70;;;28.00;57.10;;;;;;6226680;23;20011;-84
2022/09/06 11:22:49;;;;;;;2.83;1.48;;;28.20;56.00;;;;;;6255364;23;20003;-84
2022/09/06 11:25:48;;;;;;;3.20;1.58;;;28.20;56.00;;;;;;6225161;23;20007;-83
2022/09/06 11:28:18;;;;;;;2.28;1.27;;;28.10;56.00;;;;;;6255121;23;20359;-83
2022/09/06 11:30:51;;;;;;;6.55;1.52;;;28.20;56.50;;;;;;6225981;23;20005;-84
2022/09/06 11:33:30;;;;;;;6.32;1.73;;;28.40;56.00;;;;;;6251023;23;20012;-83
2022/09/06 11:36:28;;;;;;;2.58;1.80;;;28.50;55.30;;;;;;6235255;23;20027;-83
2022/09/06 11:38:57;;;;;;;3.42;1.60;;;28.50;55.10;;;;;;6234512;23;20039;-82
2022/09/06 11:41:30;;;;;;;5.55;1.70;;;28.60;55.70;;;;;;6233813;23;20000;-82
2022/09/06 11:43:55;;;;;;;4.20;1.55;;;28.70;55.50;;;;;;6260499;23;20027;-82
2022/09/06 11:46:33;;;;;;;10.68;2.25;;;28.70;54.60;;;;;;6259988;23;20000;-83
2022/09/06 11:49:15;;;;;;;4.07;1.65;;;28.60;55.40;;;;;;6264763;22;20004;-83
2022/09/06 11:51:42;;;;;;;4.45;1.75;;;28.70;55.40;;;;;;6272610;22;20015;-84
2022/09/06 11:54:17;;;;;;;2.38;1.75;;;28.70;54.90;;;;;;6261915;23;20620;-82
2022/09/06 11:56:50;;;;;;;2.17;1.50;;;28.60;56.00;;;;;;6261680;23;19996;-82
2022/09/06 11:59:17;;;;;;;4.47;1.85;;;28.60;55.40;;;;;;6262973;23;20007;-83
2022/09/06 12:01:55;;;;;;;6.38;2.03;;;28.70;55.20;;;;;;6262588;23;20059;-83
2022/09/06 12:04:22;;;;;;;2.05;1.45;;;28.80;54.90;;;;;;6263408;23;20247;-82
2022/09/06 12:07:11;;;;;;;2.65;1.58;;;29.00;54.90;;;;;;6262639;23;20000;-83
2022/09/06 12:09:48;;;;;;;5.25;1.50;;;29.30;54.40;;;;;;6263426;23;20000;-83
2022/09/06 12:12:47;;;;;;;2.60;1.40;;;29.60;53.80;;;;;;6229967;23;20004;-84
2022/09/06 12:15:45;;;;;;;3.97;1.40;;;29.80;53.80;;;;;;6254810;23;20431;-83
2022/09/06 12:18:53;;;;;;;5.32;1.80;;;30.00;53.30;;;;;;6255425;23;20016;-83
2022/09/06 12:21:37;;;;;;;3.72;1.67;;;30.10;53.80;;;;;;6236482;23;20016;-83
2022/09/06 12:24:04;;;;;;;4.85;2.22;;;30.10;53.90;;;;;;6228388;23;20008;-84
2022/09/06 12:26:48;;;;;;;5.75;1.80;;;30.10;53.30;;;;;;6257271;23;20001;-83
2022/09/06 12:29:14;;;;;;;7.47;2.40;;;30.10;53.60;;;;;;6261440;23;20055;-84
2022/09/06 12:31:45;;;;;;;7.80;2.63;;;30.20;53.60;;;;;;6261181;23;20004;-84
2022/09/06 12:34:21;;;;;;;5.47;1.80;;;30.20;53.40;;;;;;6229557;23;20007;-84
2022/09/06 12:36:57;;;;;;;7.97;2.55;;;30.00;53.90;;;;;;6231990;23;20004;-84
2022/09/06 12:39:23;;;;;;;5.28;2.50;;;30.00;53.50;;;;;;6260638;23;19996;-83
2022/09/06 12:42:04;;;;;;;8.70;2.72;;;30.00;53.60;;;;;;6259988;23;20091;-83
2022/09/06 12:44:36;;;;;;;7.40;2.40;;;30.00;53.80;;;;;;6261451;23;20470;-83
2022/09/06 12:47:13;;;;;;;7.63;2.10;;;30.00;53.50;;;;;;6229243;23;20087;-82
2022/09/06 12:49:38;;;;;;;4.32;1.92;;;29.90;53.90;;;;;;6230172;23;20004;-83
2022/09/06 12:52:11;;;;;;;9.50;2.40;;;30.10;54.10;;;;;;6254337;23;20007;-83
2022/09/06 12:54:45;;;;;;;7.03;2.60;;;30.30;53.00;;;;;;6253919;23;20010;-83
2022/09/06 12:57:23;;;;;;;7.60;2.72;;;30.60;52.90;;;;;;6226843;23;20026;-83
2022/09/06 12:59:56;;;;;;;5.57;2.08;;;31.00;51.80;;;;;;6227589;23;20008;-85
2022/09/06 13:02:44;;;;;;;6.28;2.50;;;31.20;52.10;;;;;;6227647;23;20004;-83
2022/09/06 13:05:12;;;;;;;7.05;2.13;;;31.50;51.80;;;;;;6228524;23;20004;-83
2022/09/06 13:07:59;;;;;;;4.53;1.95;;;31.60;51.30;;;;;;6255362;23;20446;-83
2022/09/06 13:10:26;;;;;;;3.50;1.85;;;31.30;51.10;;;;;;6227993;23;20004;-84
2022/09/06 13:12:54;;;;;;;5.00;1.92;;;31.00;52.10;;;;;;6256310;23;20182;-83
2022/09/06 13:15:29;;;;;;;9.98;2.97;;;30.90;52.70;;;;;;6262637;23;20027;-83
2022/09/06 13:18:33;;;;;;;4.70;2.13;;;31.20;52.20;;;;;;6226554;23;20003;-83
2022/09/06 13:21:01;;;;;;;7.03;2.88;;;31.50;51.70;;;;;;6261816;23;19996;-82
2022/09/06 13:23:28;;;;;;;5.53;2.05;;;31.60;51.20;;;;;;6225545;23;20000;-82